THY639 LTFM-HLLM
Flight info
| Callsign | THY639 |
|---|---|
| Flight time | 2h 21m |
| Altitude | 34000 |
| Route | BARPE UM603 SUTIS DCT RUTOM/N0448F350 DCT LORED/N0450F360 DCT VARIG VARIG2B |
| Aircraft | A321/M-SDE3FGHIRWY/LB1 |
Departure
| Time | 2026-04-26 15:31 |
|---|---|
| Airport | İstanbul Airport (LTFM) |
Arrival
| Time | 2026-04-26 17:53 |
|---|---|
| Airport | Mitiga International Airport (HLLM) |
| Time | Latitude | Longitude | Altitude | Speed | Heading |
|---|---|---|---|---|---|
| 2026-04-26 14:09 | 41.25909 | 28.73540 | 334 ft | 0 kts | 107° |
| 2026-04-26 15:13 | 41.25912 | 28.73525 | 329 ft | 4 kts | 107° |
| 2026-04-26 15:13 | 41.25920 | 28.73490 | 329 ft | 4 kts | 107° |
| 2026-04-26 15:13 | 41.25927 | 28.73461 | 329 ft | 2 kts | 107° |
| 2026-04-26 15:14 | 41.25931 | 28.73432 | 330 ft | 4 kts | 59° |
| 2026-04-26 15:14 | 41.25913 | 28.73417 | 329 ft | 4 kts | 17° |
| 2026-04-26 15:14 | 41.25901 | 28.73412 | 331 ft | 0 kts | 17° |
| 2026-04-26 15:19 | 41.25917 | 28.73418 | 329 ft | 5 kts | 17° |
| 2026-04-26 15:20 | 41.25969 | 28.73439 | 333 ft | 10 kts | 17° |
| 2026-04-26 15:20 | 41.26052 | 28.73473 | 334 ft | 14 kts | 17° |
| 2026-04-26 15:20 | 41.26149 | 28.73513 | 333 ft | 9 kts | 17° |
| 2026-04-26 15:20 | 41.26216 | 28.73499 | 331 ft | 11 kts | 306° |
| 2026-04-26 15:21 | 41.26219 | 28.73384 | 333 ft | 14 kts | 271° |
| 2026-04-26 15:21 | 41.26228 | 28.73259 | 332 ft | 13 kts | 305° |
| 2026-04-26 15:21 | 41.26322 | 28.73235 | 333 ft | 16 kts | 359° |
| 2026-04-26 15:21 | 41.26443 | 28.73232 | 333 ft | 19 kts | 359° |
| 2026-04-26 15:22 | 41.26546 | 28.73230 | 331 ft | 13 kts | 359° |
| 2026-04-26 15:22 | 41.26642 | 28.73227 | 332 ft | 14 kts | 359° |
| 2026-04-26 15:22 | 41.26697 | 28.73226 | 331 ft | 9 kts | 359° |
| 2026-04-26 15:22 | 41.26775 | 28.73224 | 334 ft | 13 kts | 359° |
| 2026-04-26 15:23 | 41.26858 | 28.73197 | 333 ft | 13 kts | 306° |
| 2026-04-26 15:23 | 41.26911 | 28.73106 | 334 ft | 15 kts | 349° |
| 2026-04-26 15:23 | 41.27025 | 28.73102 | 330 ft | 18 kts | 360° |
| 2026-04-26 15:23 | 41.27159 | 28.73098 | 330 ft | 20 kts | 358° |
| 2026-04-26 15:24 | 41.27307 | 28.73094 | 334 ft | 20 kts | 359° |
| 2026-04-26 15:24 | 41.27451 | 28.73092 | 331 ft | 21 kts | 359° |
| 2026-04-26 15:24 | 41.27568 | 28.73086 | 331 ft | 12 kts | 347° |
| 2026-04-26 15:24 | 41.27606 | 28.72991 | 333 ft | 13 kts | 308° |
| 2026-04-26 15:25 | 41.27694 | 28.72969 | 332 ft | 15 kts | 359° |
| 2026-04-26 15:25 | 41.27768 | 28.72968 | 331 ft | 17 kts | 359° |
| 2026-04-26 15:25 | 41.27925 | 28.72965 | 334 ft | 17 kts | 358° |
| 2026-04-26 15:25 | 41.28046 | 28.72962 | 331 ft | 18 kts | 359° |
| 2026-04-26 15:26 | 41.28182 | 28.72959 | 331 ft | 21 kts | 359° |
| 2026-04-26 15:26 | 41.28331 | 28.72955 | 334 ft | 22 kts | 359° |
| 2026-04-26 15:26 | 41.28484 | 28.72951 | 333 ft | 22 kts | 359° |
| 2026-04-26 15:26 | 41.28637 | 28.72947 | 332 ft | 22 kts | 359° |
| 2026-04-26 15:27 | 41.28793 | 28.72944 | 332 ft | 22 kts | 359° |
| 2026-04-26 15:27 | 41.28950 | 28.72941 | 333 ft | 23 kts | 359° |
| 2026-04-26 15:27 | 41.29109 | 28.72936 | 333 ft | 23 kts | 359° |
| 2026-04-26 15:27 | 41.29269 | 28.72932 | 332 ft | 23 kts | 359° |
| 2026-04-26 15:28 | 41.29416 | 28.72929 | 333 ft | 20 kts | 359° |
| 2026-04-26 15:28 | 41.29488 | 28.72901 | 332 ft | 9 kts | 301° |
| 2026-04-26 15:28 | 41.29491 | 28.72852 | 332 ft | 4 kts | 269° |
| 2026-04-26 15:28 | 41.29490 | 28.72792 | 334 ft | 9 kts | 269° |
| 2026-04-26 15:29 | 41.29489 | 28.72684 | 334 ft | 14 kts | 269° |
| 2026-04-26 15:29 | 41.29488 | 28.72553 | 334 ft | 7 kts | 269° |
| 2026-04-26 15:29 | 41.29487 | 28.72508 | 334 ft | 6 kts | 268° |
| 2026-04-26 15:30 | 41.29418 | 28.72452 | 333 ft | 1 kts | 178° |
| 2026-04-26 15:30 | 41.29297 | 28.72456 | 332 ft | 46 kts | 178° |
| 2026-04-26 15:30 | 41.28707 | 28.72468 | 330 ft | 122 kts | 179° |
| 2026-04-26 15:31 | 41.27647 | 28.72490 | 388 ft | 177 kts | 180° |
| 2026-04-26 15:31 | 41.25175 | 28.72534 | 2025 ft | 173 kts | 181° |
| 2026-04-26 15:31 | 41.23958 | 28.72582 | 2513 ft | 180 kts | 181° |
| 2026-04-26 15:32 | 41.22170 | 28.72663 | 2808 ft | 206 kts | 181° |
| 2026-04-26 15:32 | 41.19602 | 28.72804 | 3088 ft | 237 kts | 182° |
| 2026-04-26 15:32 | 41.17959 | 28.72360 | 3328 ft | 246 kts | 209° |
| 2026-04-26 15:33 | 41.16557 | 28.70990 | 3666 ft | 257 kts | 226° |
| 2026-04-26 15:33 | 41.15222 | 28.69353 | 4251 ft | 263 kts | 226° |
| 2026-04-26 15:33 | 41.13866 | 28.67704 | 4956 ft | 266 kts | 226° |
| 2026-04-26 15:33 | 41.12626 | 28.65887 | 5595 ft | 266 kts | 239° |
| 2026-04-26 15:34 | 41.11802 | 28.63738 | 6220 ft | 266 kts | 254° |
| 2026-04-26 15:34 | 41.11356 | 28.61352 | 6811 ft | 268 kts | 260° |
| 2026-04-26 15:34 | 41.10947 | 28.58923 | 7419 ft | 272 kts | 260° |
| 2026-04-26 15:34 | 41.10526 | 28.56467 | 8052 ft | 275 kts | 259° |
| 2026-04-26 15:35 | 41.10096 | 28.53983 | 8671 ft | 279 kts | 259° |
| 2026-04-26 15:35 | 41.09656 | 28.51465 | 9279 ft | 282 kts | 259° |
| 2026-04-26 15:35 | 41.09286 | 28.48902 | 9871 ft | 285 kts | 263° |
| 2026-04-26 15:35 | 41.08990 | 28.46262 | 10218 ft | 298 kts | 264° |
| 2026-04-26 15:36 | 41.08708 | 28.43456 | 10353 ft | 316 kts | 264° |
| 2026-04-26 15:36 | 41.08418 | 28.40517 | 10742 ft | 325 kts | 264° |
| 2026-04-26 15:36 | 41.08117 | 28.37479 | 10932 ft | 340 kts | 264° |
| 2026-04-26 15:36 | 41.07797 | 28.34325 | 11284 ft | 349 kts | 264° |
| 2026-04-26 15:37 | 41.07465 | 28.31123 | 11791 ft | 353 kts | 264° |
| 2026-04-26 15:37 | 41.07238 | 28.28987 | 12139 ft | 355 kts | 264° |
| 2026-04-26 15:37 | 41.06891 | 28.25743 | 12701 ft | 357 kts | 264° |
| 2026-04-26 15:37 | 41.06537 | 28.22471 | 13255 ft | 359 kts | 264° |
| 2026-04-26 15:38 | 41.06182 | 28.19183 | 13773 ft | 362 kts | 264° |
| 2026-04-26 15:38 | 41.05825 | 28.15866 | 14270 ft | 364 kts | 264° |
| 2026-04-26 15:38 | 41.05470 | 28.12531 | 14758 ft | 366 kts | 264° |
| 2026-04-26 15:38 | 41.05115 | 28.09183 | 15253 ft | 368 kts | 264° |
| 2026-04-26 15:39 | 41.04756 | 28.05812 | 15737 ft | 370 kts | 264° |
| 2026-04-26 15:39 | 41.04396 | 28.02429 | 16212 ft | 372 kts | 264° |
| 2026-04-26 15:39 | 41.04032 | 27.99027 | 16697 ft | 374 kts | 264° |
| 2026-04-26 15:39 | 41.03788 | 27.96764 | 17019 ft | 376 kts | 264° |
| 2026-04-26 15:40 | 41.03288 | 27.92168 | 17653 ft | 378 kts | 264° |
| 2026-04-26 15:40 | 41.02908 | 27.88713 | 18114 ft | 380 kts | 264° |
| 2026-04-26 15:40 | 41.02525 | 27.85232 | 18519 ft | 382 kts | 264° |
| 2026-04-26 15:40 | 41.02143 | 27.81740 | 18898 ft | 384 kts | 264° |
| 2026-04-26 15:41 | 41.01764 | 27.78276 | 19268 ft | 386 kts | 263° |
| 2026-04-26 15:41 | 41.01374 | 27.74743 | 19643 ft | 388 kts | 263° |
| 2026-04-26 15:41 | 41.00981 | 27.71198 | 20026 ft | 390 kts | 263° |
| 2026-04-26 15:41 | 41.00584 | 27.67629 | 20406 ft | 392 kts | 263° |
| 2026-04-26 15:42 | 41.00186 | 27.64042 | 20773 ft | 394 kts | 263° |
| 2026-04-26 15:42 | 40.99785 | 27.60437 | 21142 ft | 396 kts | 263° |
| 2026-04-26 15:42 | 40.99380 | 27.56821 | 21504 ft | 398 kts | 263° |
| 2026-04-26 15:42 | 40.98970 | 27.53187 | 21847 ft | 401 kts | 263° |
| 2026-04-26 15:43 | 40.98557 | 27.49530 | 22174 ft | 403 kts | 263° |
| 2026-04-26 15:43 | 40.98142 | 27.45843 | 22520 ft | 406 kts | 263° |
| 2026-04-26 15:43 | 40.97306 | 27.38423 | 23224 ft | 409 kts | 263° |
| 2026-04-26 15:44 | 40.96879 | 27.34690 | 23562 ft | 412 kts | 263° |
| 2026-04-26 15:44 | 40.96022 | 27.27166 | 24155 ft | 415 kts | 263° |
| 2026-04-26 15:44 | 40.95589 | 27.23386 | 24454 ft | 417 kts | 263° |
| 2026-04-26 15:45 | 40.94710 | 27.15790 | 25054 ft | 419 kts | 263° |
| 2026-04-26 15:45 | 40.94267 | 27.11972 | 25361 ft | 420 kts | 263° |
| 2026-04-26 15:46 | 40.93373 | 27.04319 | 25949 ft | 423 kts | 263° |
| 2026-04-26 15:46 | 40.92921 | 27.00474 | 26235 ft | 424 kts | 263° |
| 2026-04-26 15:46 | 40.92485 | 26.96602 | 26486 ft | 426 kts | 264° |
| 2026-04-26 15:46 | 40.92257 | 26.94025 | 26664 ft | 427 kts | 266° |
| 2026-04-26 15:47 | 40.91927 | 26.88788 | 27020 ft | 428 kts | 268° |
| 2026-04-26 15:47 | 40.91579 | 26.80956 | 27626 ft | 430 kts | 268° |
| 2026-04-26 15:47 | 40.91400 | 26.77011 | 27905 ft | 431 kts | 268° |
| 2026-04-26 15:48 | 40.91195 | 26.73052 | 28175 ft | 432 kts | 267° |
| 2026-04-26 15:48 | 40.90966 | 26.69086 | 28428 ft | 434 kts | 267° |
| 2026-04-26 15:48 | 40.90721 | 26.65103 | 28671 ft | 435 kts | 267° |
| 2026-04-26 15:48 | 40.90467 | 26.61103 | 28898 ft | 436 kts | 267° |
| 2026-04-26 15:49 | 40.90214 | 26.57106 | 29113 ft | 437 kts | 267° |
| 2026-04-26 15:49 | 40.89965 | 26.53096 | 29367 ft | 437 kts | 267° |
| 2026-04-26 15:49 | 40.89720 | 26.49093 | 29605 ft | 437 kts | 267° |
| 2026-04-26 15:49 | 40.89477 | 26.45087 | 29818 ft | 438 kts | 267° |
| 2026-04-26 15:50 | 40.89232 | 26.41077 | 30078 ft | 437 kts | 267° |
| 2026-04-26 15:50 | 40.88987 | 26.37081 | 30281 ft | 437 kts | 267° |
| 2026-04-26 15:50 | 40.88739 | 26.33080 | 30450 ft | 437 kts | 267° |
| 2026-04-26 15:50 | 40.88486 | 26.29077 | 30642 ft | 437 kts | 267° |
| 2026-04-26 15:51 | 40.88232 | 26.25071 | 30855 ft | 437 kts | 267° |
| 2026-04-26 15:51 | 40.87938 | 26.21145 | 31117 ft | 435 kts | 266° |
| 2026-04-26 15:51 | 40.87576 | 26.17183 | 31360 ft | 433 kts | 265° |
| 2026-04-26 15:51 | 40.87176 | 26.13243 | 31592 ft | 432 kts | 264° |
| 2026-04-26 15:52 | 40.86761 | 26.09306 | 31802 ft | 432 kts | 264° |
| 2026-04-26 15:52 | 40.86348 | 26.05380 | 32005 ft | 431 kts | 265° |
| 2026-04-26 15:52 | 40.85946 | 26.01457 | 32209 ft | 431 kts | 265° |
| 2026-04-26 15:52 | 40.85681 | 25.98809 | 32342 ft | 430 kts | 265° |
| 2026-04-26 15:53 | 40.85167 | 25.93617 | 32617 ft | 430 kts | 265° |
| 2026-04-26 15:53 | 40.84733 | 25.89721 | 32851 ft | 428 kts | 264° |
| 2026-04-26 15:53 | 40.84264 | 25.85841 | 33062 ft | 428 kts | 263° |
| 2026-04-26 15:53 | 40.83778 | 25.81968 | 33256 ft | 427 kts | 263° |
| 2026-04-26 15:54 | 40.83290 | 25.78092 | 33417 ft | 428 kts | 263° |
| 2026-04-26 15:54 | 40.82804 | 25.74212 | 33562 ft | 428 kts | 264° |
| 2026-04-26 15:54 | 40.82320 | 25.70338 | 33744 ft | 428 kts | 264° |
| 2026-04-26 15:54 | 40.81841 | 25.66459 | 33928 ft | 427 kts | 264° |
| 2026-04-26 15:55 | 40.81367 | 25.62585 | 33982 ft | 428 kts | 264° |
| 2026-04-26 15:55 | 40.80422 | 25.54852 | 33989 ft | 427 kts | 264° |
| 2026-04-26 15:56 | 40.79458 | 25.47123 | 33991 ft | 427 kts | 264° |
| 2026-04-26 15:56 | 40.78486 | 25.39399 | 33989 ft | 426 kts | 263° |
| 2026-04-26 15:57 | 40.77513 | 25.31683 | 33989 ft | 426 kts | 264° |
| 2026-04-26 15:57 | 40.76535 | 25.23956 | 33976 ft | 427 kts | 264° |
| 2026-04-26 15:58 | 40.75556 | 25.16230 | 33982 ft | 427 kts | 264° |
| 2026-04-26 15:58 | 40.74578 | 25.08560 | 33990 ft | 427 kts | 263° |
| 2026-04-26 15:59 | 40.73589 | 25.00836 | 33992 ft | 427 kts | 263° |
| 2026-04-26 15:59 | 40.72584 | 24.93104 | 33992 ft | 427 kts | 263° |
| 2026-04-26 16:00 | 40.71572 | 24.85381 | 33997 ft | 427 kts | 263° |
| 2026-04-26 16:00 | 40.70558 | 24.77660 | 34001 ft | 427 kts | 263° |
| 2026-04-26 16:01 | 40.68632 | 24.70260 | 34000 ft | 434 kts | 249° |
| 2026-04-26 16:01 | 40.66124 | 24.63019 | 33995 ft | 434 kts | 249° |
| 2026-04-26 16:02 | 40.63609 | 24.55783 | 33998 ft | 435 kts | 249° |
| 2026-04-26 16:02 | 40.61096 | 24.48537 | 33998 ft | 435 kts | 249° |
| 2026-04-26 16:03 | 40.58587 | 24.41294 | 34003 ft | 435 kts | 249° |
| 2026-04-26 16:03 | 40.56070 | 24.34049 | 33987 ft | 435 kts | 249° |
| 2026-04-26 16:04 | 40.53538 | 24.26814 | 34002 ft | 435 kts | 249° |
| 2026-04-26 16:04 | 40.51008 | 24.19584 | 34006 ft | 435 kts | 249° |
| 2026-04-26 16:05 | 40.48471 | 24.12363 | 34008 ft | 435 kts | 249° |
| 2026-04-26 16:05 | 40.45930 | 24.05149 | 34006 ft | 435 kts | 249° |
| 2026-04-26 16:06 | 40.43385 | 23.97935 | 33995 ft | 435 kts | 249° |
| 2026-04-26 16:06 | 40.40840 | 23.90743 | 34000 ft | 435 kts | 249° |
| 2026-04-26 16:07 | 40.38288 | 23.83551 | 34000 ft | 435 kts | 249° |
| 2026-04-26 16:07 | 40.35739 | 23.76364 | 34002 ft | 435 kts | 249° |
| 2026-04-26 16:08 | 40.33186 | 23.69182 | 34011 ft | 434 kts | 249° |
| 2026-04-26 16:08 | 40.30640 | 23.62069 | 34001 ft | 434 kts | 249° |
| 2026-04-26 16:09 | 40.28078 | 23.54919 | 34007 ft | 433 kts | 249° |
| 2026-04-26 16:09 | 40.25506 | 23.47777 | 34006 ft | 433 kts | 249° |
| 2026-04-26 16:10 | 40.22941 | 23.40636 | 34017 ft | 433 kts | 248° |
| 2026-04-26 16:10 | 40.20373 | 23.33508 | 34013 ft | 433 kts | 248° |
| 2026-04-26 16:11 | 40.17796 | 23.26383 | 34003 ft | 433 kts | 248° |
| 2026-04-26 16:11 | 40.15221 | 23.19267 | 34009 ft | 433 kts | 248° |
| 2026-04-26 16:12 | 40.12637 | 23.12166 | 34021 ft | 433 kts | 248° |
| 2026-04-26 16:12 | 40.08758 | 23.01521 | 34016 ft | 432 kts | 248° |
| 2026-04-26 16:13 | 40.06170 | 22.94435 | 34007 ft | 432 kts | 248° |
| 2026-04-26 16:13 | 40.03580 | 22.87358 | 34016 ft | 432 kts | 248° |
| 2026-04-26 16:14 | 40.00975 | 22.80271 | 34018 ft | 433 kts | 248° |
| 2026-04-26 16:15 | 39.97065 | 22.69656 | 34019 ft | 433 kts | 248° |
| 2026-04-26 16:15 | 39.94461 | 22.62642 | 34024 ft | 433 kts | 247° |
| 2026-04-26 16:16 | 39.90537 | 22.52057 | 34029 ft | 433 kts | 247° |
| 2026-04-26 16:16 | 39.87922 | 22.45007 | 34021 ft | 432 kts | 247° |
| 2026-04-26 16:17 | 39.85299 | 22.37969 | 34027 ft | 432 kts | 247° |
| 2026-04-26 16:17 | 39.82676 | 22.30937 | 34022 ft | 432 kts | 247° |
| 2026-04-26 16:18 | 39.78732 | 22.20413 | 34015 ft | 432 kts | 246° |
| 2026-04-26 16:19 | 39.74771 | 22.09890 | 34017 ft | 432 kts | 246° |
| 2026-04-26 16:20 | 39.70824 | 21.99427 | 34018 ft | 432 kts | 246° |
| 2026-04-26 16:20 | 39.66837 | 21.88920 | 34022 ft | 432 kts | 246° |
| 2026-04-26 16:21 | 39.64185 | 21.81929 | 34031 ft | 432 kts | 246° |
| 2026-04-26 16:21 | 39.61535 | 21.74930 | 34035 ft | 432 kts | 246° |
| 2026-04-26 16:22 | 39.58868 | 21.67945 | 34032 ft | 432 kts | 245° |
| 2026-04-26 16:22 | 39.56189 | 21.60965 | 34032 ft | 433 kts | 245° |
| 2026-04-26 16:23 | 39.53963 | 21.55157 | 34041 ft | 433 kts | 245° |
| 2026-04-26 16:23 | 39.51282 | 21.48168 | 34046 ft | 433 kts | 245° |
| 2026-04-26 16:24 | 39.48593 | 21.41179 | 34054 ft | 434 kts | 245° |
| 2026-04-26 16:24 | 39.45890 | 21.34191 | 34062 ft | 434 kts | 245° |
| 2026-04-26 16:25 | 39.43182 | 21.27209 | 34083 ft | 434 kts | 245° |
| 2026-04-26 16:25 | 39.40478 | 21.20221 | 34078 ft | 434 kts | 245° |
| 2026-04-26 16:26 | 39.37774 | 21.13249 | 34070 ft | 434 kts | 245° |
| 2026-04-26 16:26 | 39.35061 | 21.06275 | 34077 ft | 434 kts | 245° |
| 2026-04-26 16:27 | 39.32342 | 20.99308 | 34081 ft | 434 kts | 244° |
| 2026-04-26 16:27 | 39.29617 | 20.92351 | 34077 ft | 434 kts | 244° |
| 2026-04-26 16:28 | 39.26903 | 20.85442 | 34075 ft | 434 kts | 244° |
| 2026-04-26 16:28 | 39.24174 | 20.78499 | 34082 ft | 434 kts | 244° |
| 2026-04-26 16:29 | 39.21436 | 20.71556 | 34076 ft | 434 kts | 244° |
| 2026-04-26 16:29 | 39.18705 | 20.64625 | 34083 ft | 434 kts | 244° |
| 2026-04-26 16:30 | 39.15960 | 20.57702 | 34074 ft | 434 kts | 244° |
| 2026-04-26 16:30 | 39.13209 | 20.50781 | 34086 ft | 434 kts | 244° |
| 2026-04-26 16:31 | 39.10463 | 20.43865 | 34085 ft | 433 kts | 244° |
| 2026-04-26 16:31 | 39.07711 | 20.36966 | 34090 ft | 433 kts | 243° |
| 2026-04-26 16:32 | 39.05426 | 20.31243 | 34085 ft | 433 kts | 243° |
| 2026-04-26 16:32 | 39.02207 | 20.23189 | 34087 ft | 433 kts | 243° |
| 2026-04-26 16:33 | 38.99447 | 20.16307 | 34086 ft | 433 kts | 243° |
| 2026-04-26 16:33 | 38.96671 | 20.09421 | 34098 ft | 433 kts | 243° |
| 2026-04-26 16:34 | 38.93896 | 20.02555 | 34102 ft | 433 kts | 243° |
| 2026-04-26 16:34 | 38.91121 | 19.95691 | 34103 ft | 433 kts | 243° |
| 2026-04-26 16:35 | 38.88356 | 19.88831 | 34106 ft | 432 kts | 243° |
| 2026-04-26 16:35 | 38.85584 | 19.81988 | 34105 ft | 432 kts | 243° |
| 2026-04-26 16:36 | 38.82821 | 19.75195 | 34110 ft | 432 kts | 243° |
| 2026-04-26 16:36 | 38.80040 | 19.68378 | 34109 ft | 431 kts | 243° |
| 2026-04-26 16:37 | 38.77257 | 19.61563 | 34112 ft | 431 kts | 242° |
| 2026-04-26 16:37 | 38.74470 | 19.54756 | 34112 ft | 431 kts | 242° |
| 2026-04-26 16:38 | 38.71679 | 19.47958 | 34114 ft | 431 kts | 242° |
| 2026-04-26 16:38 | 38.68891 | 19.41168 | 34118 ft | 431 kts | 242° |
| 2026-04-26 16:39 | 38.66093 | 19.34372 | 34122 ft | 431 kts | 242° |
| 2026-04-26 16:39 | 38.63292 | 19.27597 | 34121 ft | 431 kts | 242° |
| 2026-04-26 16:40 | 38.60486 | 19.20830 | 34118 ft | 431 kts | 242° |
| 2026-04-26 16:40 | 38.57679 | 19.14060 | 34118 ft | 431 kts | 242° |
| 2026-04-26 16:41 | 38.54887 | 19.07338 | 34125 ft | 431 kts | 242° |
| 2026-04-26 16:41 | 38.52061 | 19.00591 | 34123 ft | 431 kts | 239° |
| 2026-04-26 16:42 | 38.48622 | 18.94324 | 34125 ft | 431 kts | 234° |
| 2026-04-26 16:42 | 38.45102 | 18.88134 | 34118 ft | 431 kts | 234° |
| 2026-04-26 16:43 | 38.41577 | 18.81942 | 34120 ft | 431 kts | 234° |
| 2026-04-26 16:43 | 38.38053 | 18.75759 | 34125 ft | 431 kts | 234° |
| 2026-04-26 16:44 | 38.34514 | 18.69575 | 34121 ft | 432 kts | 234° |
| 2026-04-26 16:44 | 38.30968 | 18.63389 | 34123 ft | 432 kts | 234° |
| 2026-04-26 16:45 | 38.27424 | 18.57209 | 34111 ft | 432 kts | 234° |
| 2026-04-26 16:45 | 38.23872 | 18.51017 | 34116 ft | 433 kts | 234° |
| 2026-04-26 16:46 | 38.20322 | 18.44838 | 34128 ft | 433 kts | 234° |
| 2026-04-26 16:46 | 38.16756 | 18.38651 | 34109 ft | 435 kts | 235° |
| 2026-04-26 16:47 | 38.13170 | 18.32453 | 34093 ft | 436 kts | 235° |
| 2026-04-26 16:47 | 38.09574 | 18.26231 | 34101 ft | 437 kts | 236° |
| 2026-04-26 16:48 | 38.05961 | 18.20016 | 34112 ft | 437 kts | 235° |
| 2026-04-26 16:48 | 38.02343 | 18.13803 | 34119 ft | 438 kts | 236° |
| 2026-04-26 16:49 | 37.98757 | 18.07636 | 34125 ft | 437 kts | 236° |
| 2026-04-26 16:49 | 37.95136 | 18.01418 | 34128 ft | 439 kts | 236° |
| 2026-04-26 16:50 | 37.91511 | 17.95207 | 34125 ft | 438 kts | 236° |
| 2026-04-26 16:50 | 37.87877 | 17.89002 | 34125 ft | 438 kts | 236° |
| 2026-04-26 16:51 | 37.84236 | 17.82801 | 34126 ft | 439 kts | 236° |
| 2026-04-26 16:51 | 37.80591 | 17.76604 | 34137 ft | 439 kts | 236° |
| 2026-04-26 16:52 | 37.77564 | 17.71454 | 34142 ft | 439 kts | 236° |
| 2026-04-26 16:52 | 37.73295 | 17.64214 | 34142 ft | 439 kts | 236° |
| 2026-04-26 16:53 | 37.69639 | 17.58036 | 34152 ft | 439 kts | 236° |
| 2026-04-26 16:53 | 37.65990 | 17.51863 | 34153 ft | 439 kts | 236° |
| 2026-04-26 16:54 | 37.62331 | 17.45696 | 34153 ft | 439 kts | 236° |
| 2026-04-26 16:54 | 37.58671 | 17.39544 | 34142 ft | 439 kts | 236° |
| 2026-04-26 16:55 | 37.55006 | 17.33390 | 34148 ft | 439 kts | 236° |
| 2026-04-26 16:55 | 37.51340 | 17.27240 | 34152 ft | 439 kts | 236° |
| 2026-04-26 16:56 | 37.45831 | 17.18028 | 34152 ft | 439 kts | 236° |
| 2026-04-26 16:57 | 37.42156 | 17.11893 | 34151 ft | 439 kts | 236° |
| 2026-04-26 16:57 | 37.36634 | 17.02710 | 34144 ft | 439 kts | 236° |
| 2026-04-26 16:58 | 37.34191 | 16.98651 | 34141 ft | 439 kts | 236° |
| 2026-04-26 16:59 | 37.27407 | 16.87403 | 34152 ft | 439 kts | 236° |
| 2026-04-26 17:00 | 37.20020 | 16.75189 | 34156 ft | 440 kts | 236° |
| 2026-04-26 17:00 | 37.14484 | 16.66081 | 34150 ft | 440 kts | 236° |
| 2026-04-26 17:01 | 37.10772 | 16.59988 | 34156 ft | 440 kts | 236° |
| 2026-04-26 17:01 | 37.07038 | 16.53855 | 34159 ft | 439 kts | 236° |
| 2026-04-26 17:02 | 37.03359 | 16.47820 | 34152 ft | 439 kts | 236° |
| 2026-04-26 17:02 | 36.99634 | 16.41745 | 34154 ft | 440 kts | 236° |
| 2026-04-26 17:03 | 36.95909 | 16.35675 | 34157 ft | 440 kts | 236° |
| 2026-04-26 17:03 | 36.92182 | 16.29601 | 34159 ft | 440 kts | 236° |
| 2026-04-26 17:04 | 36.88453 | 16.23543 | 34158 ft | 440 kts | 236° |
| 2026-04-26 17:04 | 36.84721 | 16.17490 | 34158 ft | 439 kts | 236° |
| 2026-04-26 17:05 | 36.81621 | 16.12463 | 34149 ft | 439 kts | 236° |
| 2026-04-26 17:05 | 36.77887 | 16.06429 | 34153 ft | 439 kts | 236° |
| 2026-04-26 17:06 | 36.74151 | 16.00395 | 34155 ft | 439 kts | 236° |
| 2026-04-26 17:06 | 36.70417 | 15.94365 | 34156 ft | 439 kts | 236° |
| 2026-04-26 17:07 | 36.66676 | 15.88360 | 34158 ft | 439 kts | 236° |
| 2026-04-26 17:07 | 36.62931 | 15.82362 | 34151 ft | 438 kts | 236° |
| 2026-04-26 17:08 | 36.59184 | 15.76362 | 34149 ft | 438 kts | 236° |
| 2026-04-26 17:08 | 36.55450 | 15.70375 | 34161 ft | 438 kts | 236° |
| 2026-04-26 17:09 | 36.52341 | 15.65402 | 34160 ft | 438 kts | 236° |
| 2026-04-26 17:09 | 36.47240 | 15.59177 | 34162 ft | 447 kts | 220° |
| 2026-04-26 17:10 | 36.42194 | 15.54669 | 34151 ft | 447 kts | 221° |
| 2026-04-26 17:10 | 36.37160 | 15.50147 | 34172 ft | 446 kts | 221° |
| 2026-04-26 17:11 | 36.32159 | 15.45654 | 34170 ft | 446 kts | 221° |
| 2026-04-26 17:11 | 36.27126 | 15.41145 | 34164 ft | 446 kts | 221° |
| 2026-04-26 17:12 | 36.19575 | 15.34410 | 34159 ft | 446 kts | 221° |
| 2026-04-26 17:13 | 36.12021 | 15.27689 | 34160 ft | 445 kts | 222° |
| 2026-04-26 17:14 | 36.04483 | 15.20990 | 34172 ft | 444 kts | 222° |
| 2026-04-26 17:14 | 35.96967 | 15.14326 | 34173 ft | 443 kts | 223° |
| 2026-04-26 17:15 | 35.89468 | 15.07682 | 34174 ft | 442 kts | 223° |
| 2026-04-26 17:16 | 35.84465 | 15.03262 | 34168 ft | 442 kts | 223° |
| 2026-04-26 17:16 | 35.79451 | 14.98854 | 34153 ft | 442 kts | 223° |
| 2026-04-26 17:17 | 35.74447 | 14.94457 | 34163 ft | 441 kts | 223° |
| 2026-04-26 17:17 | 35.69456 | 14.90072 | 34172 ft | 440 kts | 223° |
| 2026-04-26 17:18 | 35.64475 | 14.85699 | 34178 ft | 439 kts | 223° |
| 2026-04-26 17:18 | 35.59502 | 14.81342 | 34178 ft | 438 kts | 223° |
| 2026-04-26 17:19 | 35.52053 | 14.74836 | 34173 ft | 437 kts | 223° |
| 2026-04-26 17:19 | 35.47100 | 14.70512 | 34176 ft | 437 kts | 223° |
| 2026-04-26 17:20 | 35.42986 | 14.66929 | 34177 ft | 436 kts | 223° |
| 2026-04-26 17:20 | 35.37228 | 14.61928 | 34177 ft | 436 kts | 223° |
| 2026-04-26 17:21 | 35.32275 | 14.57628 | 34168 ft | 436 kts | 223° |
| 2026-04-26 17:21 | 35.27328 | 14.53337 | 34171 ft | 436 kts | 223° |
| 2026-04-26 17:22 | 35.22377 | 14.49045 | 34172 ft | 436 kts | 223° |
| 2026-04-26 17:22 | 35.17420 | 14.44766 | 34173 ft | 436 kts | 223° |
| 2026-04-26 17:23 | 35.12467 | 14.40494 | 34174 ft | 436 kts | 223° |
| 2026-04-26 17:23 | 35.07507 | 14.36225 | 34174 ft | 436 kts | 223° |
| 2026-04-26 17:24 | 35.02554 | 14.31954 | 33871 ft | 436 kts | 223° |
| 2026-04-26 17:24 | 35.00079 | 14.29821 | 33548 ft | 436 kts | 223° |
| 2026-04-26 17:24 | 34.97593 | 14.27678 | 33226 ft | 437 kts | 223° |
| 2026-04-26 17:25 | 34.95104 | 14.25537 | 32915 ft | 439 kts | 222° |
| 2026-04-26 17:25 | 34.92601 | 14.23394 | 32596 ft | 441 kts | 222° |
| 2026-04-26 17:25 | 34.90084 | 14.21242 | 32273 ft | 442 kts | 221° |
| 2026-04-26 17:25 | 34.87562 | 14.19087 | 31973 ft | 443 kts | 221° |
| 2026-04-26 17:26 | 34.85039 | 14.16932 | 31665 ft | 444 kts | 221° |
| 2026-04-26 17:26 | 34.82507 | 14.14766 | 31367 ft | 445 kts | 221° |
| 2026-04-26 17:26 | 34.79971 | 14.12598 | 31070 ft | 446 kts | 221° |
| 2026-04-26 17:26 | 34.77417 | 14.10419 | 30781 ft | 448 kts | 221° |
| 2026-04-26 17:27 | 34.74863 | 14.08243 | 30488 ft | 449 kts | 221° |
| 2026-04-26 17:27 | 34.72295 | 14.06058 | 30205 ft | 451 kts | 221° |
| 2026-04-26 17:27 | 34.69719 | 14.03869 | 29877 ft | 452 kts | 221° |
| 2026-04-26 17:27 | 34.67136 | 14.01674 | 29525 ft | 453 kts | 220° |
| 2026-04-26 17:28 | 34.64589 | 13.99506 | 29201 ft | 454 kts | 220° |
| 2026-04-26 17:28 | 34.62001 | 13.97302 | 28871 ft | 455 kts | 220° |
| 2026-04-26 17:28 | 34.59402 | 13.95093 | 28549 ft | 455 kts | 220° |
| 2026-04-26 17:28 | 34.56812 | 13.92894 | 28224 ft | 452 kts | 220° |
| 2026-04-26 17:29 | 34.54259 | 13.90737 | 27910 ft | 444 kts | 220° |
| 2026-04-26 17:29 | 34.52588 | 13.89327 | 27698 ft | 441 kts | 220° |
| 2026-04-26 17:29 | 34.49238 | 13.86487 | 27292 ft | 437 kts | 220° |
| 2026-04-26 17:29 | 34.46756 | 13.84380 | 26977 ft | 434 kts | 220° |
| 2026-04-26 17:30 | 34.44281 | 13.82286 | 26658 ft | 432 kts | 220° |
| 2026-04-26 17:30 | 34.41818 | 13.80213 | 26364 ft | 430 kts | 219° |
| 2026-04-26 17:30 | 34.39364 | 13.78149 | 26060 ft | 429 kts | 219° |
| 2026-04-26 17:30 | 34.36914 | 13.76090 | 25776 ft | 427 kts | 219° |
| 2026-04-26 17:31 | 34.34476 | 13.74041 | 25488 ft | 426 kts | 219° |
| 2026-04-26 17:31 | 34.32038 | 13.72016 | 25201 ft | 425 kts | 218° |
| 2026-04-26 17:31 | 34.29567 | 13.70061 | 24918 ft | 424 kts | 217° |
| 2026-04-26 17:31 | 34.27073 | 13.68161 | 24636 ft | 423 kts | 216° |
| 2026-04-26 17:32 | 34.24591 | 13.66307 | 24367 ft | 422 kts | 216° |
| 2026-04-26 17:32 | 34.22088 | 13.64450 | 24073 ft | 421 kts | 216° |
| 2026-04-26 17:32 | 34.19604 | 13.62598 | 23806 ft | 419 kts | 216° |
| 2026-04-26 17:32 | 34.17134 | 13.60741 | 23495 ft | 418 kts | 216° |
| 2026-04-26 17:33 | 34.14680 | 13.58881 | 23176 ft | 416 kts | 217° |
| 2026-04-26 17:33 | 34.12266 | 13.57041 | 22858 ft | 414 kts | 217° |
| 2026-04-26 17:33 | 34.09833 | 13.55186 | 22539 ft | 412 kts | 217° |
| 2026-04-26 17:34 | 34.05001 | 13.51510 | 21907 ft | 409 kts | 217° |
| 2026-04-26 17:34 | 34.02606 | 13.49692 | 21537 ft | 406 kts | 216° |
| 2026-04-26 17:34 | 34.00236 | 13.47902 | 21160 ft | 396 kts | 216° |
| 2026-04-26 17:34 | 33.97930 | 13.46161 | 20797 ft | 387 kts | 216° |
| 2026-04-26 17:35 | 33.95679 | 13.44460 | 20456 ft | 378 kts | 216° |
| 2026-04-26 17:35 | 33.93469 | 13.42789 | 20116 ft | 373 kts | 216° |
| 2026-04-26 17:35 | 33.91276 | 13.41128 | 19778 ft | 371 kts | 216° |
| 2026-04-26 17:35 | 33.89097 | 13.39480 | 19445 ft | 369 kts | 216° |
| 2026-04-26 17:36 | 33.86927 | 13.37841 | 19113 ft | 368 kts | 216° |
| 2026-04-26 17:36 | 33.84762 | 13.36207 | 18787 ft | 366 kts | 216° |
| 2026-04-26 17:36 | 33.82607 | 13.34582 | 18465 ft | 365 kts | 216° |
| 2026-04-26 17:36 | 33.80463 | 13.32967 | 18099 ft | 363 kts | 216° |
| 2026-04-26 17:37 | 33.78322 | 13.31357 | 17730 ft | 362 kts | 216° |
| 2026-04-26 17:37 | 33.76192 | 13.29755 | 17366 ft | 360 kts | 216° |
| 2026-04-26 17:37 | 33.74099 | 13.28181 | 16996 ft | 359 kts | 216° |
| 2026-04-26 17:38 | 33.69873 | 13.25008 | 16291 ft | 357 kts | 216° |
| 2026-04-26 17:38 | 33.67752 | 13.23455 | 15943 ft | 357 kts | 214° |
| 2026-04-26 17:38 | 33.65586 | 13.22003 | 15599 ft | 357 kts | 213° |
| 2026-04-26 17:38 | 33.63393 | 13.20618 | 15253 ft | 356 kts | 212° |
| 2026-04-26 17:39 | 33.61189 | 13.19263 | 14919 ft | 355 kts | 212° |
| 2026-04-26 17:39 | 33.58991 | 13.17915 | 14584 ft | 354 kts | 212° |
| 2026-04-26 17:39 | 33.56808 | 13.16565 | 14253 ft | 353 kts | 212° |
| 2026-04-26 17:39 | 33.54632 | 13.15205 | 13926 ft | 352 kts | 212° |
| 2026-04-26 17:40 | 33.52472 | 13.13842 | 13586 ft | 350 kts | 213° |
| 2026-04-26 17:40 | 33.51774 | 13.13400 | 13489 ft | 350 kts | 213° |
| 2026-04-26 17:40 | 33.48208 | 13.11144 | 12951 ft | 347 kts | 212° |
| 2026-04-26 17:40 | 33.46077 | 13.09798 | 12647 ft | 346 kts | 212° |
| 2026-04-26 17:41 | 33.43956 | 13.08455 | 12325 ft | 342 kts | 212° |
| 2026-04-26 17:41 | 33.41872 | 13.07142 | 11958 ft | 335 kts | 212° |
| 2026-04-26 17:41 | 33.39832 | 13.05855 | 11573 ft | 329 kts | 212° |
| 2026-04-26 17:41 | 33.37828 | 13.04589 | 11212 ft | 323 kts | 212° |
| 2026-04-26 17:42 | 33.35853 | 13.03345 | 10855 ft | 319 kts | 211° |
| 2026-04-26 17:42 | 33.33903 | 13.02116 | 10482 ft | 314 kts | 211° |
| 2026-04-26 17:42 | 33.31979 | 13.00903 | 10135 ft | 309 kts | 211° |
| 2026-04-26 17:42 | 33.30099 | 12.99718 | 9760 ft | 302 kts | 211° |
| 2026-04-26 17:43 | 33.28259 | 12.98559 | 9379 ft | 296 kts | 211° |
| 2026-04-26 17:43 | 33.26456 | 12.97426 | 8993 ft | 290 kts | 211° |
| 2026-04-26 17:43 | 33.24688 | 12.96315 | 8617 ft | 285 kts | 211° |
| 2026-04-26 17:43 | 33.22943 | 12.95219 | 8197 ft | 282 kts | 210° |
| 2026-04-26 17:44 | 33.21240 | 12.94148 | 7784 ft | 278 kts | 210° |
| 2026-04-26 17:44 | 33.19533 | 12.93078 | 7370 ft | 276 kts | 210° |
| 2026-04-26 17:44 | 33.17839 | 12.92015 | 6969 ft | 273 kts | 211° |
| 2026-04-26 17:44 | 33.16164 | 12.90964 | 6579 ft | 271 kts | 211° |
| 2026-04-26 17:45 | 33.14500 | 12.89920 | 6182 ft | 270 kts | 211° |
| 2026-04-26 17:45 | 33.12811 | 12.88930 | 5786 ft | 271 kts | 200° |
| 2026-04-26 17:45 | 33.10958 | 12.88606 | 5389 ft | 270 kts | 177° |
| 2026-04-26 17:45 | 33.09148 | 12.89131 | 5063 ft | 266 kts | 161° |
| 2026-04-26 17:46 | 33.07436 | 12.89863 | 4810 ft | 257 kts | 161° |
| 2026-04-26 17:46 | 33.05853 | 12.90797 | 4553 ft | 254 kts | 147° |
| 2026-04-26 17:46 | 33.04524 | 12.92127 | 4333 ft | 246 kts | 135° |
| 2026-04-26 17:46 | 33.03501 | 12.93760 | 4090 ft | 247 kts | 121° |
| 2026-04-26 17:47 | 33.02644 | 12.95529 | 3844 ft | 246 kts | 121° |
| 2026-04-26 17:47 | 33.02366 | 12.96098 | 3764 ft | 245 kts | 122° |
| 2026-04-26 17:47 | 33.00915 | 12.99034 | 3359 ft | 245 kts | 122° |
| 2026-04-26 17:47 | 33.00055 | 13.00766 | 3108 ft | 243 kts | 121° |
| 2026-04-26 17:48 | 32.99196 | 13.02497 | 2860 ft | 242 kts | 122° |
| 2026-04-26 17:48 | 32.98349 | 13.04205 | 2646 ft | 238 kts | 121° |
| 2026-04-26 17:48 | 32.97507 | 13.05905 | 2485 ft | 239 kts | 121° |
| 2026-04-26 17:48 | 32.96666 | 13.07606 | 2343 ft | 237 kts | 120° |
| 2026-04-26 17:49 | 32.95847 | 13.09264 | 2196 ft | 230 kts | 120° |
| 2026-04-26 17:49 | 32.95057 | 13.10858 | 2062 ft | 217 kts | 120° |
| 2026-04-26 17:49 | 32.94296 | 13.12389 | 1935 ft | 214 kts | 119° |
| 2026-04-26 17:49 | 32.93548 | 13.13891 | 1794 ft | 205 kts | 119° |
| 2026-04-26 17:50 | 32.92848 | 13.15296 | 1670 ft | 191 kts | 119° |
| 2026-04-26 17:50 | 32.92178 | 13.16633 | 1636 ft | 186 kts | 118° |
| 2026-04-26 17:50 | 32.91791 | 13.17510 | 1513 ft | 174 kts | 113° |
| 2026-04-26 17:50 | 32.91416 | 13.18819 | 1310 ft | 162 kts | 99° |
| 2026-04-26 17:51 | 32.91178 | 13.20111 | 1184 ft | 156 kts | 102° |
| 2026-04-26 17:51 | 32.90900 | 13.21321 | 1006 ft | 148 kts | 104° |
| 2026-04-26 17:51 | 32.90631 | 13.22477 | 837 ft | 144 kts | 102° |
| 2026-04-26 17:51 | 32.90368 | 13.23623 | 728 ft | 143 kts | 103° |
| 2026-04-26 17:52 | 32.90101 | 13.24754 | 515 ft | 141 kts | 102° |
| 2026-04-26 17:52 | 32.89845 | 13.25871 | 303 ft | 141 kts | 103° |
| 2026-04-26 17:52 | 32.89583 | 13.27013 | 91 ft | 143 kts | 103° |
| 2026-04-26 17:52 | 32.89336 | 13.28098 | 23 ft | 120 kts | 104° |
| 2026-04-26 17:53 | 32.89164 | 13.28842 | 22 ft | 66 kts | 105° |
| 2026-04-26 17:53 | 32.89070 | 13.29236 | 18 ft | 30 kts | 104° |
| 2026-04-26 17:53 | 32.89020 | 13.29459 | 18 ft | 22 kts | 104° |
| 2026-04-26 17:54 | 32.89165 | 13.29493 | 19 ft | 15 kts | 288° |
| 2026-04-26 17:54 | 32.89191 | 13.29379 | 20 ft | 11 kts | 285° |
| 2026-04-26 17:54 | 32.89215 | 13.29270 | 20 ft | 16 kts | 285° |
| 2026-04-26 17:54 | 32.89248 | 13.29129 | 20 ft | 20 kts | 285° |
| 2026-04-26 17:55 | 32.89287 | 13.28957 | 22 ft | 23 kts | 286° |
| 2026-04-26 17:55 | 32.89334 | 13.28755 | 21 ft | 26 kts | 285° |
| 2026-04-26 17:55 | 32.89375 | 13.28580 | 21 ft | 22 kts | 285° |
| 2026-04-26 17:55 | 32.89408 | 13.28430 | 21 ft | 15 kts | 285° |
| 2026-04-26 17:56 | 32.89463 | 13.28326 | 21 ft | 16 kts | 333° |
| 2026-04-26 17:56 | 32.89637 | 13.28226 | 21 ft | 10 kts | 334° |
| 2026-04-26 17:57 | 32.89684 | 13.28199 | 21 ft | 0 kts | 334° |
| 2026-04-26 17:58 | 32.89713 | 13.28184 | 21 ft | 5 kts | 140° |
| 2026-04-26 17:59 | 32.89566 | 13.28267 | 21 ft | 17 kts | 155° |
| 2026-04-26 17:59 | 32.89468 | 13.28307 | 21 ft | 14 kts | 198° |
| 2026-04-26 17:59 | 32.89458 | 13.28207 | 22 ft | 15 kts | 287° |
| 2026-04-26 17:59 | 32.89474 | 13.28144 | 22 ft | 0 kts | 287° |
| 2026-04-26 18:01 | 32.89478 | 13.28127 | 21 ft | 5 kts | 286° |
| 2026-04-26 18:01 | 32.89496 | 13.28050 | 21 ft | 14 kts | 285° |
| 2026-04-26 18:01 | 32.89526 | 13.27917 | 22 ft | 18 kts | 285° |
| 2026-04-26 18:01 | 32.89554 | 13.27797 | 22 ft | 13 kts | 291° |
| 2026-04-26 18:02 | 32.89632 | 13.27709 | 22 ft | 18 kts | 321° |
| 2026-04-26 18:02 | 32.89698 | 13.27645 | 22 ft | 19 kts | 320° |
| 2026-04-26 18:02 | 32.89833 | 13.27579 | 22 ft | 17 kts | 10° |
| 2026-04-26 18:02 | 32.89955 | 13.27622 | 22 ft | 19 kts | 23° |
| 2026-04-26 18:03 | 32.90075 | 13.27662 | 23 ft | 18 kts | 355° |
| 2026-04-26 18:03 | 32.90197 | 13.27647 | 22 ft | 17 kts | 354° |
| 2026-04-26 18:03 | 32.90315 | 13.27630 | 24 ft | 16 kts | 352° |
| 2026-04-26 18:03 | 32.90416 | 13.27613 | 22 ft | 9 kts | 352° |
| 2026-04-26 18:04 | 32.90459 | 13.27663 | 22 ft | 11 kts | 82° |
| 2026-04-26 18:04 | 32.90450 | 13.27745 | 24 ft | 5 kts | 97° |
| 2026-04-26 18:04 | 32.90429 | 13.27760 | 22 ft | 5 kts | 173° |
| 2026-04-26 18:05 | 32.90405 | 13.27721 | 22 ft | 4 kts | 272° |
| 2026-04-26 18:05 | 32.90407 | 13.27702 | 22 ft | 4 kts | 272° |
| 2026-04-26 18:05 | 32.90407 | 13.27694 | 22 ft | 0 kts | 273° |